Time;durP1;ratioP1;P1;durP2;ratioP2;P2;SDS_P1;SDS_P2;PMS_P1;PMS_P2;Temp;Humidity;BMP_temperature;BMP_pressure;BME280_temperature;BME280_humidity;BME280_pressure;Samples;Min_cycle;Max_cycle;Signal;HPM_P1;HPM_P2
2021/09/18 00:02:12;;;;;;;;;20.25;15.50;;;;;26.38;41.26;100621.53;146608;686;45031;-79
2021/09/18 00:04:47;;;;;;;;;16.50;14.25;;;;;26.38;41.27;100626.84;146603;659;46020;-74
2021/09/18 00:07:21;;;;;;;;;14.50;13.75;;;;;26.37;41.03;100635.72;146608;570;46008;-73
2021/09/18 00:09:55;;;;;;;;;15.50;13.00;;;;;26.31;41.05;100627.84;146604;570;46019;-73
2021/09/18 00:12:29;;;;;;;;;14.00;14.00;;;;;26.25;40.90;100626.16;146607;577;46008;-73
2021/09/18 00:15:03;;;;;;;;;16.00;13.50;;;;;26.16;40.83;100617.44;146601;595;47010;-73
2021/09/18 00:17:37;;;;;;;;;16.00;15.00;;;;;26.09;41.51;100606.00;146607;632;46008;-75
2021/09/18 00:20:12;;;;;;;;;16.00;16.00;;;;;26.03;41.63;100609.63;146603;575;47912;-76
2021/09/18 00:22:46;;;;;;;;;17.00;14.50;;;;;25.97;40.88;100608.84;146603;604;46013;-76
2021/09/18 00:25:20;;;;;;;;;15.25;14.25;;;;;25.88;40.92;100601.88;146602;575;46018;-76
2021/09/18 00:27:54;;;;;;;;;17.50;15.75;;;;;25.83;41.79;100613.50;146604;686;46020;-76
2021/09/18 00:30:29;;;;;;;;;17.75;15.00;;;;;25.76;41.68;100616.19;146604;578;47020;-75
2021/09/18 00:33:04;;;;;;;;;14.25;13.75;;;;;25.70;41.18;100618.91;146609;581;45018;-76
2021/09/18 00:35:41;;;;;;;;;13.50;13.50;;;;;25.61;40.74;100621.69;146604;579;47020;-77
2021/09/18 00:38:15;;;;;;;;;16.00;12.50;;;;;25.55;41.51;100624.41;146606;615;46019;-77
2021/09/18 00:40:49;;;;;;;;;13.00;11.50;;;;;25.45;41.57;100626.31;146605;738;46030;-80
2021/09/18 00:43:23;;;;;;;;;14.00;12.00;;;;;25.39;41.75;100638.75;146608;571;46018;-78
2021/09/18 00:45:57;;;;;;;;;14.00;14.00;;;;;25.30;41.73;100629.12;146603;597;46019;-77
2021/09/18 00:48:31;;;;;;;;;17.25;14.75;;;;;25.22;41.31;100623.87;146607;566;46008;-76
2021/09/18 00:51:05;;;;;;;;;15.50;15.25;;;;;25.17;42.23;100620.41;146605;611;46912;-77
2021/09/18 00:53:39;;;;;;;;;18.50;15.50;;;;;25.12;41.76;100624.84;146609;599;45019;-76
2021/09/18 00:56:15;;;;;;;;;12.75;12.75;;;;;25.06;41.01;100614.28;146603;569;46010;-76
2021/09/18 00:58:49;;;;;;;;;15.00;13.00;;;;;25.04;41.39;100627.56;146607;645;46018;-80
2021/09/18 01:01:23;;;;;;;;;16.50;14.75;;;;;25.03;41.91;100632.91;146604;595;46010;-80
2021/09/18 01:03:57;;;;;;;;;14.50;12.50;;;;;25.02;41.67;100641.75;146607;585;46010;-78
2021/09/18 01:06:31;;;;;;;;;18.25;14.75;;;;;25.04;41.96;100650.56;146603;566;46019;-76
2021/09/18 01:09:05;;;;;;;;;16.50;13.00;;;;;25.05;41.46;100649.69;146608;583;46018;-75
2021/09/18 01:11:39;;;;;;;;;15.50;12.50;;;;;25.03;41.52;100651.47;146606;563;46010;-73
2021/09/18 01:14:14;;;;;;;;;14.50;14.00;;;;;25.00;41.37;100636.47;146607;606;46010;-72
2021/09/18 01:16:48;;;;;;;;;14.50;12.75;;;;;24.96;41.29;100637.37;146605;565;46912;-72
2021/09/18 01:19:22;;;;;;;;;13.50;13.25;;;;;24.93;40.98;100644.50;146606;613;46018;-72
2021/09/18 01:21:57;;;;;;;;;17.00;15.25;;;;;24.87;40.66;100632.16;146606;615;46010;-72
2021/09/18 01:24:30;;;;;;;;;15.25;13.00;;;;;24.82;39.85;100624.22;146608;569;46018;-72
2021/09/18 01:27:05;;;;;;;;;14.75;14.00;;;;;24.83;40.40;100627.78;146604;580;46018;-72
2021/09/18 01:29:39;;;;;;;;;13.25;13.25;;;;;24.85;40.64;100628.62;146603;617;46018;-72
2021/09/18 01:32:13;;;;;;;;;15.75;13.25;;;;;24.91;41.04;100625.06;146605;564;46010;-73
2021/09/18 01:34:47;;;;;;;;;15.75;13.75;;;;;24.93;40.92;100617.97;146607;569;46018;-73
2021/09/18 01:37:21;;;;;;;;;15.00;15.00;;;;;24.93;41.18;100618.84;146606;628;46019;-73
2021/09/18 01:39:55;;;;;;;;;14.75;13.75;;;;;24.93;41.43;100612.66;146606;579;46018;-72
2021/09/18 01:42:29;;;;;;;;;14.25;13.50;;;;;24.94;41.58;100620.59;146605;637;46018;-73
2021/09/18 01:45:03;;;;;;;;;16.00;15.50;;;;;24.94;41.27;100622.38;146604;626;46019;-73
2021/09/18 01:47:58;;;;;;;;;13.50;13.50;;;;;24.98;41.81;100613.47;146604;617;46029;-76
2021/09/18 01:50:44;;;;;;;;;16.75;14.75;;;;;25.06;41.11;100614.28;146606;573;46018;-81
2021/09/18 01:53:20;;;;;;;;;16.00;14.50;;;;;25.17;40.63;100612.47;146606;567;46019;-81
2021/09/18 01:55:56;;;;;;;;;16.75;14.00;;;;;25.25;40.65;100607.06;146606;588;46010;-74
2021/09/18 01:58:30;;;;;;;;;14.50;14.00;;;;;25.29;40.70;100614.09;146603;576;46020;-76
2021/09/18 02:01:05;;;;;;;;;18.50;14.25;;;;;25.31;40.67;100604.34;146608;578;46012;-75
2021/09/18 02:03:39;;;;;;;;;19.25;17.00;;;;;25.33;40.31;100603.44;146606;616;46018;-76
2021/09/18 02:06:16;;;;;;;;;16.50;15.25;;;;;25.38;40.25;100597.19;146610;624;46019;-76
2021/09/18 02:08:56;;;;;;;;;18.00;15.25;;;;;25.40;40.02;100592.75;146604;589;46912;-77
2021/09/18 02:11:30;;;;;;;;;19.50;17.00;;;;;25.40;40.31;100593.63;146607;618;46018;-76
2021/09/18 02:14:04;;;;;;;;;17.00;16.00;;;;;25.38;40.45;100590.09;146604;570;46019;-76
2021/09/18 02:16:37;;;;;;;;;18.75;16.75;;;;;25.30;39.90;100586.66;146611;646;45021;-76
2021/09/18 02:19:11;;;;;;;;;15.25;15.00;;;;;25.29;41.02;100588.41;146606;655;47010;-73
2021/09/18 02:21:45;;;;;;;;;15.25;13.50;;;;;25.31;40.54;100591.94;146607;575;46010;-74
2021/09/18 02:24:19;;;;;;;;;14.50;14.50;;;;;25.29;41.01;100583.09;146604;571;46033;-74
2021/09/18 02:26:53;;;;;;;;;16.75;13.50;;;;;25.26;40.28;100576.97;146608;565;46018;-75
2021/09/18 02:29:28;;;;;;;;;16.50;16.25;;;;;25.20;40.33;100577.03;146605;561;46018;-75
2021/09/18 02:32:02;;;;;;;;;14.00;14.00;;;;;25.12;40.18;100571.78;146608;593;46012;-75
2021/09/18 02:34:36;;;;;;;;;12.25;12.25;;;;;25.08;40.73;100564.75;146604;618;46010;-76
2021/09/18 02:37:10;;;;;;;;;19.25;17.25;;;;;25.04;41.28;100569.19;146607;585;46012;-76
2021/09/18 02:39:44;;;;;;;;;17.75;16.25;;;;;24.96;40.34;100573.72;146602;571;47912;-75
2021/09/18 02:42:18;;;;;;;;;17.75;15.25;;;;;24.92;41.43;100581.72;146607;570;46914;-75
2021/09/18 02:44:52;;;;;;;;;14.75;14.00;;;;;24.86;41.58;100580.03;146605;647;46912;-77
2021/09/18 02:47:26;;;;;;;;;18.75;15.50;;;;;24.83;41.02;100582.72;146604;582;46914;-78
2021/09/18 02:50:00;;;;;;;;;17.75;15.75;;;;;24.80;40.67;100585.38;146604;576;47010;-77
2021/09/18 02:52:37;;;;;;;;;18.00;16.25;;;;;24.81;41.01;100587.13;146605;567;47008;-75
2021/09/18 02:55:12;;;;;;;;;17.50;15.75;;;;;24.13;40.95;100467.56;146604;575;47010;-75
2021/09/18 02:57:47;;;;;;;;;17.25;17.25;;;;;24.72;41.60;100580.13;146605;564;46018;-76
2021/09/18 03:00:21;;;;;;;;;17.50;16.00;;;;;24.68;41.80;100578.41;146605;636;47023;-74
2021/09/18 03:02:55;;;;;;;;;22.25;17.50;;;;;24.61;41.49;100576.69;146607;608;47008;-74
2021/09/18 03:05:45;;;;;;;;;17.25;14.25;;;;;24.57;41.88;100577.62;146601;569;47902;-75
2021/09/18 03:08:19;;;;;;;;;17.25;16.25;;;;;24.51;41.81;100583.84;146607;565;47006;-74
2021/09/18 03:10:53;;;;;;;;;15.50;15.50;;;;;24.48;42.21;100588.28;146606;609;46010;-75
2021/09/18 03:13:26;;;;;;;;;16.50;14.25;;;;;24.44;41.59;100590.09;146607;613;46008;-75
2021/09/18 03:16:00;;;;;;;;;17.00;16.25;;;;;24.36;42.15;100582.19;146606;598;46018;-78
2021/09/18 03:18:34;;;;;;;;;20.25;17.25;;;;;24.32;42.41;100591.03;146608;578;46008;-76
2021/09/18 03:21:09;;;;;;;;;20.50;18.25;;;;;24.28;42.26;100586.66;146604;569;46019;-76
2021/09/18 03:23:43;;;;;;;;;17.50;16.50;;;;;24.20;42.67;100581.41;146605;750;46018;-76
2021/09/18 03:26:17;;;;;;;;;19.75;16.75;;;;;24.17;42.59;100583.19;146605;569;46018;-76
2021/09/18 03:28:51;;;;;;;;;20.75;17.00;;;;;24.13;42.75;100584.09;146606;634;46018;-75
2021/09/18 03:31:25;;;;;;;;;15.75;15.75;;;;;24.09;42.61;100585.03;146606;688;46010;-73
2021/09/18 03:33:59;;;;;;;;;16.50;16.50;;;;;24.03;42.30;100585.94;146606;585;46018;-73
2021/09/18 03:36:33;;;;;;;;;17.75;16.00;;;;;24.02;42.78;100586.84;146605;579;46010;-76
2021/09/18 03:39:08;;;;;;;;;17.25;15.75;;;;;24.00;42.72;100590.38;146605;611;46018;-75
2021/09/18 03:41:42;;;;;;;;;18.75;15.00;;;;;23.96;42.81;100589.53;146601;570;48020;-75
2021/09/18 03:44:16;;;;;;;;;16.25;15.50;;;;;23.95;42.62;100595.69;146604;565;47009;-74
2021/09/18 03:46:50;;;;;;;;;16.50;14.25;;;;;23.94;43.20;100600.09;146605;636;46010;-75
2021/09/18 03:49:24;;;;;;;;;16.50;16.00;;;;;23.93;43.22;100592.19;146606;606;46018;-75
2021/09/18 03:51:58;;;;;;;;;20.00;16.00;;;;;23.89;42.82;100587.78;146603;584;46913;-76
2021/09/18 03:54:32;;;;;;;;;18.75;16.25;;;;;23.88;43.30;100586.91;146607;590;46018;-77
2021/09/18 03:57:07;;;;;;;;;17.00;16.75;;;;;23.84;43.07;100585.16;146604;629;47912;-78
2021/09/18 03:59:41;;;;;;;;;16.25;13.75;;;;;23.80;43.23;100590.47;146606;580;46019;-78
2021/09/18 04:02:15;;;;;;;;;15.75;13.75;;;;;23.78;43.55;100582.56;146604;583;46030;-76
2021/09/18 04:04:49;;;;;;;;;21.00;15.25;;;;;23.75;42.97;100577.28;146604;571;47010;-76
2021/09/18 04:07:23;;;;;;;;;17.00;17.00;;;;;23.70;43.28;100573.75;146602;595;47010;-77
2021/09/18 04:09:56;;;;;;;;;18.25;16.25;;;;;23.65;43.64;100576.41;146608;609;46008;-76
2021/09/18 04:12:31;;;;;;;;;18.25;16.50;;;;;23.61;43.91;100581.69;146604;609;46010;-78
2021/09/18 04:15:05;;;;;;;;;20.00;17.00;;;;;23.57;44.04;100585.25;146607;576;46008;-79
2021/09/18 04:17:39;;;;;;;;;18.75;18.75;;;;;23.55;43.73;100581.72;146604;649;46018;-81
2021/09/18 04:20:13;;;;;;;;;16.50;16.00;;;;;23.51;43.72;100579.09;146606;636;46019;-80
2021/09/18 04:22:47;;;;;;;;;17.00;14.75;;;;;23.51;43.66;100592.31;146604;582;47010;-81
2021/09/18 04:25:21;;;;;;;;;20.75;17.25;;;;;23.52;43.91;100598.53;146608;592;46018;-80
2021/09/18 04:27:55;;;;;;;;;15.25;14.00;;;;;23.50;43.70;100595.00;146606;601;46019;-79
2021/09/18 04:30:29;;;;;;;;;20.25;17.75;;;;;22.86;44.19;100490.22;146603;676;46018;-77
2021/09/18 04:33:03;;;;;;;;;16.50;16.50;;;;;23.51;44.04;100596.75;146604;588;47912;-78
2021/09/18 04:35:37;;;;;;;;;19.50;17.00;;;;;23.52;43.87;100610.00;146606;599;47008;-78
2021/09/18 04:38:12;;;;;;;;;18.50;17.00;;;;;23.55;44.04;100603.81;146601;688;46018;-78
2021/09/18 04:40:46;;;;;;;;;19.75;17.00;;;;;23.57;43.96;100598.50;146607;658;46013;-78
2021/09/18 04:43:20;;;;;;;;;16.00;13.00;;;;;23.01;43.66;100506.09;146604;629;46010;-76
2021/09/18 04:45:54;;;;;;;;;17.50;15.50;;;;;23.71;43.68;100607.31;146607;604;47010;-83
2021/09/18 04:48:28;;;;;;;;;17.00;15.75;;;;;23.78;43.63;100606.37;146603;572;47912;-81
2021/09/18 04:51:02;;;;;;;;;15.50;13.50;;;;;23.87;43.82;100608.97;146607;631;46019;-79
2021/09/18 04:53:36;;;;;;;;;18.25;17.00;;;;;23.93;43.80;100601.00;146604;563;46010;-78
2021/09/18 04:56:10;;;;;;;;;19.50;17.75;;;;;24.01;43.75;100595.66;146604;585;46019;-77
2021/09/18 04:58:45;;;;;;;;;16.75;16.75;;;;;24.19;43.47;100599.97;146605;656;46018;-80
2021/09/18 05:01:23;;;;;;;;;18.75;16.25;;;;;24.33;42.81;100595.47;146605;591;46026;-80
2021/09/18 05:03:57;;;;;;;;;16.75;15.25;;;;;24.43;42.69;100604.25;146603;576;46019;-80
2021/09/18 05:06:31;;;;;;;;;20.00;17.25;;;;;24.46;42.65;100609.53;146607;613;46006;-80
2021/09/18 05:09:05;;;;;;;;;23.50;17.25;;;;;24.54;43.42;100605.03;146603;626;47912;-80
2021/09/18 05:11:40;;;;;;;;;18.25;17.00;;;;;24.70;43.10;100607.56;146609;617;46008;-79
2021/09/18 05:14:15;;;;;;;;;17.25;15.75;;;;;24.91;43.25;100614.44;146605;598;46010;-80
2021/09/18 05:16:49;;;;;;;;;22.75;19.75;;;;;25.10;42.89;100603.63;146608;570;46008;-75
2021/09/18 05:19:23;;;;;;;;;17.25;15.50;;;;;25.26;42.49;100608.81;146605;661;45912;-75
2021/09/18 05:21:57;;;;;;;;;23.25;18.75;;;;;25.38;42.62;100613.97;146604;563;46018;-74
2021/09/18 05:24:31;;;;;;;;;20.25;18.25;;;;;25.49;41.85;100611.22;146604;678;46012;-75
2021/09/18 05:27:08;;;;;;;;;21.00;17.50;;;;;25.01;42.58;100508.22;146608;585;46019;-75
2021/09/18 05:29:43;;;;;;;;;21.25;17.25;;;;;25.81;42.35;100602.87;146602;620;47010;-74
2021/09/18 05:32:18;;;;;;;;;21.50;18.75;;;;;26.00;42.42;100607.03;146607;593;46018;-74
2021/09/18 05:34:52;;;;;;;;;19.75;16.25;;;;;26.14;41.90;100616.59;146604;585;46018;-74
2021/09/18 05:37:26;;;;;;;;;23.00;18.75;;;;;26.20;42.05;100609.41;146606;587;47010;-76
2021/09/18 05:40:00;;;;;;;;;19.50;17.75;;;;;26.19;42.48;100604.97;146606;566;46010;-73
2021/09/18 05:42:34;;;;;;;;;22.00;20.00;;;;;26.17;42.57;100606.78;146606;601;46010;-74
2021/09/18 05:45:10;;;;;;;;;19.75;17.00;;;;;26.23;42.46;100613.78;146607;566;46010;-76
2021/09/18 05:47:44;;;;;;;;;20.00;18.75;;;;;26.39;42.14;100606.47;146605;723;46019;-74
2021/09/18 05:50:18;;;;;;;;;18.00;17.00;;;;;26.57;40.96;100610.63;146604;565;46029;-77
2021/09/18 05:52:52;;;;;;;;;23.00;18.00;;;;;26.76;41.04;100619.16;146608;569;46018;-76
2021/09/18 05:55:26;;;;;;;;;17.00;16.75;;;;;26.94;41.26;100619.72;146603;577;47912;-77
2021/09/18 05:58:00;;;;;;;;;19.75;18.75;;;;;27.16;40.00;100612.25;146608;575;46008;-76
2021/09/18 06:00:34;;;;;;;;;16.50;16.00;;;;;27.41;41.19;100614.44;146605;569;46018;-78
2021/09/18 06:03:08;;;;;;;;;16.00;15.25;;;;;27.63;38.73;100609.56;146606;571;46009;-76
2021/09/18 06:05:42;;;;;;;;;19.00;18.00;;;;;27.87;40.07;100613.53;146607;641;46010;-77
2021/09/18 06:08:23;;;;;;;;;18.50;15.50;;;;;28.14;39.24;100621.84;146607;616;46018;-77
2021/09/18 06:10:57;;;;;;;;;18.75;18.25;;;;;28.41;39.90;100628.31;146604;604;46019;-77
2021/09/18 06:13:31;;;;;;;;;16.75;16.50;;;;;28.12;37.82;100535.69;146603;576;47012;-72
2021/09/18 06:16:06;;;;;;;;;19.00;17.00;;;;;28.94;38.11;100636.78;146604;620;46018;-70
2021/09/18 06:18:40;;;;;;;;;20.25;15.25;;;;;29.20;37.29;100633.47;146608;591;46007;-72
2021/09/18 06:21:14;;;;;;;;;17.00;16.50;;;;;29.45;37.01;100642.56;146606;624;46018;-71
2021/09/18 06:23:48;;;;;;;;;20.75;18.75;;;;;29.67;36.98;100644.66;146607;573;46018;-73
2021/09/18 06:26:22;;;;;;;;;21.00;19.00;;;;;29.88;35.70;100637.81;146606;582;46010;-75
2021/09/18 06:28:56;;;;;;;;;19.75;18.25;;;;;30.09;36.06;100642.50;146607;565;46008;-79
2021/09/18 06:31:30;;;;;;;;;19.75;18.00;;;;;30.29;35.76;100631.19;146605;573;46018;-74
2021/09/18 06:34:04;;;;;;;;;21.00;19.50;;;;;30.48;33.74;100635.97;146608;576;46008;-71
2021/09/18 06:36:38;;;;;;;;;21.25;19.00;;;;;30.57;34.51;100643.69;146604;598;46018;-77
2021/09/18 06:39:12;;;;;;;;;21.25;19.00;;;;;30.64;34.30;100642.56;146604;607;47013;-69
2021/09/18 06:41:46;;;;;;;;;29.25;22.75;;;;;30.68;34.00;100637.97;146604;577;47913;-74
2021/09/18 06:44:20;;;;;;;;;21.50;20.50;;;;;30.72;34.75;100643.19;146609;604;46008;-73
2021/09/18 06:46:54;;;;;;;;;22.25;20.00;;;;;30.82;35.30;100649.12;146604;681;46018;-72
2021/09/18 06:49:28;;;;;;;;;1.50;1.50;;;;;30.97;34.80;100655.78;146607;570;47008;-71
2021/09/18 06:52:02;;;;;;;;;23.00;21.25;;;;;31.13;34.39;100648.09;146602;650;47020;-71
2021/09/18 06:54:36;;;;;;;;;23.25;20.75;;;;;31.28;34.38;100645.72;146609;579;45022;-71
2021/09/18 06:57:11;;;;;;;;;23.25;22.25;;;;;31.43;34.83;100656.84;146603;633;46019;-72
2021/09/18 06:59:45;;;;;;;;;19.75;18.25;;;;;31.58;34.76;100656.28;146607;607;46018;-76
2021/09/18 07:02:29;;;;;;;;;25.00;21.00;;;;;31.79;34.84;100653.75;146603;583;46018;-68
2021/09/18 07:05:03;;;;;;;;;25.25;24.00;;;;;31.97;34.44;100648.59;146607;592;46008;-69
2021/09/18 07:07:37;;;;;;;;;23.50;19.25;;;;;32.16;34.40;100653.22;146605;611;46010;-68
2021/09/18 07:10:13;;;;;;;;;21.75;20.00;;;;;32.32;33.52;100648.13;146606;607;46009;-68
2021/09/18 07:12:47;;;;;;;;;21.25;20.00;;;;;32.48;33.89;100649.28;146603;563;46018;-67
2021/09/18 07:15:21;;;;;;;;;24.00;19.75;;;;;32.63;32.93;100645.09;146604;595;46018;-68
2021/09/18 07:17:55;;;;;;;;;20.50;17.50;;;;;32.75;32.62;100647.25;146603;572;46019;-68
2021/09/18 07:20:29;;;;;;;;;21.00;17.25;;;;;32.84;33.20;100648.69;146605;595;46018;-69
2021/09/18 07:23:04;;;;;;;;;17.50;17.25;;;;;32.97;32.99;100652.62;146603;580;46018;-69
2021/09/18 07:25:38;;;;;;;;;20.75;16.00;;;;;33.11;32.57;100654.69;146607;618;46008;-69
2021/09/18 07:28:12;;;;;;;;;20.75;16.25;;;;;33.20;31.82;100650.75;146603;581;46018;-69
2021/09/18 07:30:46;;;;;;;;;18.25;15.00;;;;;33.23;31.94;100638.03;146603;564;47008;-69
2021/09/18 07:33:20;;;;;;;;;18.00;16.25;;;;;33.28;32.46;100636.03;146606;582;46010;-69
2021/09/18 07:35:54;;;;;;;;;18.25;17.25;;;;;33.41;31.92;100635.50;146605;595;46018;-69
2021/09/18 07:38:28;;;;;;;;;14.00;14.00;;;;;33.55;31.62;100630.37;146603;580;46011;-69
2021/09/18 07:41:02;;;;;;;;;16.00;13.25;;;;;33.70;31.88;100631.50;146609;571;46012;-69
2021/09/18 07:43:36;;;;;;;;;13.50;11.75;;;;;33.83;30.35;100632.66;146604;614;47910;-69
2021/09/18 07:46:10;;;;;;;;;11.25;8.25;;;;;33.94;29.36;100641.09;146606;580;46019;-69
2021/09/18 07:48:44;;;;;;;;;11.00;9.50;;;;;34.03;29.54;100654.16;146601;693;47021;-69
2021/09/18 07:51:18;;;;;;;;;10.00;8.25;;;;;34.13;29.97;100646.50;146610;736;46008;-69
2021/09/18 07:53:52;;;;;;;;;8.50;8.25;;;;;34.27;30.16;100653.94;146605;583;47010;-69
2021/09/18 07:56:26;;;;;;;;;9.25;8.75;;;;;34.42;29.27;100642.38;146605;643;46917;-70
2021/09/18 07:59:02;;;;;;;;;12.75;9.25;;;;;34.54;28.46;100640.94;146602;576;47020;-70
2021/09/18 08:01:36;;;;;;;;;10.50;10.50;;;;;34.67;28.22;100643.91;146606;674;46019;-70
2021/09/18 08:04:10;;;;;;;;;9.00;7.00;;;;;34.75;26.95;100640.84;146607;573;46028;-69
2021/09/18 08:06:44;;;;;;;;;11.25;8.25;;;;;34.79;27.24;100648.66;146608;661;46916;-69
2021/09/18 08:09:18;;;;;;;;;12.00;9.00;;;;;34.82;27.51;100645.81;146604;669;46018;-69
2021/09/18 08:11:52;;;;;;;;;11.25;8.75;;;;;34.87;26.91;100650.97;146608;642;46018;-70
2021/09/18 08:14:27;;;;;;;;;9.75;8.00;;;;;34.89;27.24;100652.66;146604;568;46027;-69
2021/09/18 08:17:03;;;;;;;;;11.25;9.50;;;;;34.39;27.54;100561.78;146605;585;47006;-69
2021/09/18 08:19:38;;;;;;;;;12.25;9.75;;;;;34.91;27.12;100652.56;146606;694;46018;-69
2021/09/18 08:22:12;;;;;;;;;9.75;8.50;;;;;34.86;26.22;100654.59;146602;596;47012;-70
2021/09/18 08:24:46;;;;;;;;;15.25;10.50;;;;;34.74;26.59;100663.31;146605;607;46018;-71
2021/09/18 08:27:20;;;;;;;;;12.00;10.75;;;;;34.55;26.81;100663.34;146607;614;46018;-69
2021/09/18 08:29:57;;;;;;;;;12.50;9.50;;;;;34.35;27.16;100664.31;146605;603;46011;-68
2021/09/18 08:32:32;;;;;;;;;13.50;8.50;;;;;34.35;27.76;100661.63;146607;571;46018;-69
2021/09/18 08:35:06;;;;;;;;;9.25;9.25;;;;;34.49;28.92;100662.69;146606;665;45910;-69
2021/09/18 08:37:41;;;;;;;;;15.50;11.00;;;;;34.62;27.00;100665.69;146608;583;45020;-69
2021/09/18 08:40:15;;;;;;;;;11.75;9.50;;;;;34.64;28.59;100660.22;146605;610;46010;-70
2021/09/18 08:42:49;;;;;;;;;10.50;8.00;;;;;34.67;27.21;100658.25;146609;686;46008;-69
2021/09/18 08:45:23;;;;;;;;;7.25;7.25;;;;;34.60;27.70;100666.69;146605;691;46910;-70
2021/09/18 08:47:59;;;;;;;;;11.25;10.50;;;;;34.60;28.62;100666.69;146608;572;47006;-70
2021/09/18 08:50:33;;;;;;;;;9.00;8.75;;;;;34.76;28.72;100664.13;146604;616;47910;-70
2021/09/18 08:53:08;;;;;;;;;6.25;5.25;;;;;35.01;28.57;100659.22;146608;623;46018;-70
2021/09/18 08:55:42;;;;;;;;;11.75;9.25;;;;;35.31;26.14;100664.00;146606;624;46910;-69
2021/09/18 08:58:16;;;;;;;;;18.25;17.00;;;;;35.42;25.20;100649.94;146605;618;46018;-70
2021/09/18 09:00:52;;;;;;;;;9.25;8.25;;;;;35.27;25.27;100651.66;146604;580;46018;-69
2021/09/18 09:03:29;;;;;;;;;10.25;9.00;;;;;35.05;27.00;100662.66;146605;575;47012;-69
2021/09/18 09:06:26;;;;;;;;;10.00;10.00;;;;;34.83;26.96;100658.34;146603;677;46018;-69
2021/09/18 09:09:01;;;;;;;;;10.75;10.25;;;;;34.60;27.11;100654.09;146608;618;46018;-69
2021/09/18 09:11:35;;;;;;;;;11.25;10.50;;;;;34.44;27.53;100648.59;146604;590;46018;-69
2021/09/18 09:14:11;;;;;;;;;9.00;9.00;;;;;34.37;28.33;100655.22;146605;609;46008;-69
2021/09/18 09:17:04;;;;;;;;;12.00;10.00;;;;;34.29;29.61;100656.53;146605;564;47024;-70
2021/09/18 09:19:51;;;;;;;;;9.00;8.00;;;;;34.21;29.96;100638.94;146604;577;47008;-76
2021/09/18 09:22:47;;;;;;;;;12.50;10.00;;;;;34.19;28.97;100639.97;146604;662;47052;-69
2021/09/18 09:25:37;;;;;;;;;11.00;8.50;;;;;34.10;28.63;100640.41;146607;577;47010;-69
2021/09/18 09:28:31;;;;;;;;;14.75;10.00;;;;;33.98;29.16;100631.94;146605;609;46010;-69
2021/09/18 09:31:28;;;;;;;;;8.50;8.25;;;;;33.85;30.27;100641.53;146608;649;46019;-69
2021/09/18 09:34:15;;;;;;;;;13.50;10.25;;;;;33.75;29.71;100630.34;146605;689;47010;-69
2021/09/18 09:36:55;;;;;;;;;8.00;7.25;;;;;33.72;29.66;100629.63;146601;576;47013;-70
2021/09/18 09:39:30;;;;;;;;;12.75;10.75;;;;;33.66;27.80;100624.53;146604;660;47911;-69
2021/09/18 09:42:05;;;;;;;;;13.50;11.50;;;;;33.59;29.19;100621.25;146606;637;46018;-69
2021/09/18 09:44:39;;;;;;;;;11.00;9.75;;;;;33.51;28.34;100615.34;146604;564;46018;-68
2021/09/18 09:47:18;;;;;;;;;7.75;6.00;;;;;33.44;28.52;100617.41;146605;570;46019;-69
2021/09/18 09:49:59;;;;;;;;;10.00;8.00;;;;;33.31;29.50;100610.84;146604;626;47010;-69
2021/09/18 09:52:35;;;;;;;;;15.00;11.00;;;;;33.19;27.36;100606.87;146609;569;46019;-69
2021/09/18 09:55:21;;;;;;;;;10.25;8.00;;;;;33.09;28.60;100600.19;146605;628;46018;-70
2021/09/18 09:58:04;;;;;;;;;13.75;11.00;;;;;33.02;29.22;100593.31;146609;683;46008;-69
2021/09/18 10:00:52;;;;;;;;;12.25;8.25;;;;;32.39;28.68;100489.47;146605;564;46910;-69
2021/09/18 10:03:28;;;;;;;;;13.25;11.75;;;;;32.98;27.54;100589.91;146607;619;46008;-69
2021/09/18 10:06:04;;;;;;;;;19.00;16.75;;;;;32.99;27.28;100590.75;146602;591;48022;-69
2021/09/18 10:08:38;;;;;;;;;10.75;8.00;;;;;33.11;28.04;100590.22;146606;652;46018;-70
2021/09/18 10:11:13;;;;;;;;;9.33;8.33;;;;;33.40;27.61;100590.72;146605;563;46018;-69
2021/09/18 10:13:52;;;;;;;;;6.67;6.00;;;;;33.63;27.46;100592.41;146605;579;46020;-69
2021/09/18 10:16:29;;;;;;;;;6.00;5.00;;;;;33.45;27.06;100498.19;146605;643;47021;-69
2021/09/18 10:19:07;;;;;;;;;4.75;3.75;;;;;34.33;26.65;100564.81;146609;570;46008;-69
2021/09/18 10:24:39;;;;;;;;;6.67;4.00;;;;;35.20;26.11;100559.44;146606;599;47008;-70
2021/09/18 10:27:22;;;;;;;;;5.67;4.00;;;;;35.35;23.85;100561.28;146607;563;46030;-69
2021/09/18 10:29:57;;;;;;;;;6.00;3.00;;;;;35.38;25.47;100541.38;146607;658;46008;-70
2021/09/18 10:32:31;;;;;;;;;3.00;2.67;;;;;35.24;23.49;100544.84;146605;563;47910;-69
2021/09/18 10:35:16;;;;;;;;;2.67;0.00;;;;;35.15;25.41;100534.56;146598;694;46029;-70
2021/09/18 10:37:50;;;;;;;;;2.00;2.00;;;;;35.11;23.87;100538.37;146605;657;46019;-69
2021/09/18 10:40:24;;;;;;;;;4.50;2.25;;;;;35.27;25.48;100536.59;146607;575;46018;-69
2021/09/18 10:42:58;;;;;;;;;4.00;3.33;;;;;35.51;24.64;100528.09;146603;609;46018;-71
2021/09/18 10:45:44;;;;;;;;;1.67;1.67;;;;;35.75;25.59;100520.50;146610;610;46012;-69
2021/09/18 10:48:59;;;;;;;;;5.00;3.00;;;;;35.99;25.37;100512.81;146606;627;46910;-70
2021/09/18 10:51:42;;;;;;;;;5.00;3.00;;;;;36.27;22.64;100504.00;146607;583;46008;-72
2021/09/18 11:12:35;;;;;;;;;2.33;1.67;;;;;36.00;23.22;100507.31;146606;568;46008;-68
2021/09/18 11:15:41;;;;;;;;;3.00;2.00;;;;;36.08;23.37;100506.94;146604;572;46019;-68
2021/09/18 11:18:43;;;;;;;;;7.00;2.00;;;;;36.21;23.69;100505.22;146608;639;46008;-68
2021/09/18 11:21:28;;;;;;;;;3.00;0.00;;;;;36.33;21.93;100508.16;146605;613;46018;-69
2021/09/18 11:24:39;;;;;;;;;2.50;1.25;;;;;36.47;21.75;100494.69;146611;581;45019;-68
2021/09/18 11:27:13;;;;;;;;;5.00;1.33;;;;;36.71;22.43;100504.03;146606;580;47010;-68
2021/09/18 11:29:54;;;;;;;;;2.00;1.33;;;;;36.94;22.37;100505.31;146607;597;46019;-68
2021/09/18 11:32:29;;;;;;;;;3.33;1.67;;;;;37.13;22.30;100515.00;146603;573;47010;-68
2021/09/18 11:35:07;;;;;;;;;2.67;2.67;;;;;37.27;21.49;100501.50;146605;571;46020;-68
2021/09/18 11:37:41;;;;;;;;;2.67;1.00;;;;;37.30;20.87;100503.12;146603;627;47023;-68
2021/09/18 11:40:15;;;;;;;;;1.33;0.00;;;;;37.32;21.64;100495.78;146610;641;46008;-68
2021/09/18 11:42:49;;;;;;;;;1.00;1.00;;;;;37.30;20.75;100486.91;146607;612;46018;-68
2021/09/18 11:45:25;;;;;;;;;2.67;1.67;;;;;37.35;21.14;100484.75;146607;598;46027;-68
2021/09/18 11:48:03;;;;;;;;;1.00;0.67;;;;;37.43;22.10;100483.31;146606;579;46912;-68
2021/09/18 11:50:39;;;;;;;;;1.00;1.00;;;;;37.49;20.87;100494.75;146608;745;46019;-68
2021/09/18 11:53:16;;;;;;;;;4.33;2.67;;;;;37.53;20.73;100478.19;146605;668;47912;-68
2021/09/18 11:55:58;;;;;;;;;2.00;1.33;;;;;37.61;22.01;100478.56;146610;598;46026;-69
2021/09/18 11:58:34;;;;;;;;;3.00;3.00;;;;;37.18;21.63;100381.28;146603;637;46032;-69
2021/09/18 12:01:12;;;;;;;;;3.33;1.67;;;;;37.84;21.10;100482.44;146607;583;46018;-69
2021/09/18 12:03:48;;;;;;;;;0.00;0.00;;;;;37.85;19.79;100475.19;146605;575;46018;-68
2021/09/18 12:06:22;;;;;;;;;1.00;1.00;;;;;37.83;20.33;100482.56;146607;565;46019;-69
2021/09/18 12:08:56;;;;;;;;;2.00;1.00;;;;;37.78;20.11;100468.47;146604;566;46018;-69
2021/09/18 12:11:30;;;;;;;;;0.00;0.00;;;;;37.76;19.78;100457.75;146608;617;46018;-70
2021/09/18 12:14:04;;;;;;;;;3.00;3.00;;;;;37.81;20.10;100466.41;146608;582;45912;-68